• Join FlightAware (Why Join?)
  • Login
  • US Flag 
06:28AM EDT


 

Airport Tracker/Info


-or-


 

Live Flight TrackerFlight Track Log ✈ UAL4843 ✈ 13-Apr-2013 ✈ KBWI - KCLE

Flight Track Log - Related Links

Times and Time Zones

All times are in EDT time to prevent confusion due to time zone crossing. See the UAL4843 flight status page for this flight to view local times or setup timezone preferences in your user account.

Time Position Orientation Groundspeed Altitude Reporting Facility
EDT Latitude Longitude Course Direction KTS MPH feet Rate Location/Type
02:40PM 39.2736 -76.8569 322° Northwest 194 223 5,900  Level Washington Center
02:41PM 39.2856 -76.9136 285° West 182 209 7,600 1,740 Climbing Washington Center
02:42PM 39.2975 -76.9647 287° West 169 194 9,400 1,440 Climbing Washington Center
02:43PM 39.2000 -77.1050 270° West  Level FlightAware Approximate
02:43PM 39.3094 -77.0158 287° West 157 181 10,500  Level Washington Center
02:44PM 39.2214 -77.1547 322° Northwest  Level FlightAware Approximate
02:44PM 39.3317 -77.0672 299° West 157 181 11,800  Level Washington Center
02:45PM 39.2668 -77.2001 322° Northwest  Level FlightAware Approximate
02:45PM 39.3581 -77.1161 305° West 162 186 13,100  Level Washington Center
02:46PM 39.3844 -77.1678 303° West 167 192 14,400 1,260 Climbing Washington Center
02:47PM 39.4089 -77.2167 303° West 167 192 15,700 780 Climbing Washington Center
02:48PM 39.4375 -77.2656 307° West 167 192 16,000 360 Climbing Washington Center
02:49PM 39.4719 -77.3256 307° West 182 209 16,500 600 Climbing Washington Center
02:50PM 39.5025 -77.3800 306° West 194 223 17,200 660 Climbing Washington Center
02:51PM 39.5328 -77.4347 306° West 194 223 17,900 660 Climbing Washington Center
02:52PM 39.5633 -77.4892 306° West 194 223 18,600 720 Climbing Washington Center
02:53PM 39.5936 -77.5411 307° West 194 223 19,400 540 Climbing Washington Center
02:55PM 39.6408 -77.6231 307° West 190 219 20,000 180 Climbing Cleveland Center
02:56PM 39.6714 -77.6783 306° West 185 213 20,000  Level Cleveland Center
02:57PM 39.7042 -77.7364 306° West 191 220 20,000  Level Cleveland Center
02:58PM 39.7392 -77.7969 307° West 196 226 20,000  Level Cleveland Center
02:59PM 39.7739 -77.8578 307° West 202 232 20,000  Level Cleveland Center
03:00PM 39.8067 -77.9211 304° West 207 238 20,000  Level Cleveland Center
03:01PM 39.8436 -77.9819 308° West 212 244 20,000  Level Cleveland Center
03:02PM 39.8783 -78.0456 305° West 212 244 20,000  Level Cleveland Center
03:03PM 39.9131 -78.1039 308° West 212 244 20,000  Level Cleveland Center
03:04PM 39.9478 -78.1675 305° West 217 250 20,000  Level Cleveland Center
03:05PM 39.9822 -78.2286 306° West 217 250 20,000  Level Cleveland Center
03:06PM 40.0150 -78.2897 305° West 217 250 20,000  Level Cleveland Center
03:07PM 40.0494 -78.3508 306° West 217 250 20,000  Level Cleveland Center
03:08PM 40.0839 -78.4094 308° West 217 250 20,000  Level Cleveland Center
03:09PM 40.1164 -78.4736 304° West 217 250 20,000  Level Cleveland Center
03:10PM 40.1508 -78.5350 306° West 217 250 20,000  Level Cleveland Center
03:11PM 40.1833 -78.5939 306° West 217 250 20,000  Level Cleveland Center
03:12PM 40.2178 -78.6581 305° West 217 250 20,000  Level Cleveland Center
03:13PM 40.2564 -78.7250 307° West 211 243 20,000  Level Cleveland Center
03:14PM 40.2886 -78.7867 304° West 211 243 20,000  Level Cleveland Center
03:15PM 40.3208 -78.8483 304° West 216 249 20,000  Level Cleveland Center
03:16PM 40.3550 -78.9075 307° West 216 249 20,000  Level Cleveland Center
03:17PM 40.3892 -78.9667 307° West 216 249 20,000  Level Cleveland Center
03:18PM 40.4233 -79.0258 307° West 216 249 20,000  Level Cleveland Center
03:19PM 40.4556 -79.0822 307° West 216 249 20,000  Level Cleveland Center
03:20PM 40.4875 -79.1417 305° West 211 243 20,000  Level Cleveland Center
03:21PM 40.5194 -79.1983 307° West 206 237 20,000  Level Cleveland Center
03:22PM 40.5514 -79.2550 307° West 206 237 20,000  Level Cleveland Center
03:23PM 40.5853 -79.3092 309° West 206 237 20,000  Level Cleveland Center
03:24PM 40.6172 -79.3686 305° West 206 237 20,000  Level Cleveland Center
03:25PM 40.6492 -79.4256 306° West 200 230 20,000  Level Cleveland Center
03:26PM 40.6831 -79.4825 308° West 200 230 20,000  Level Cleveland Center
03:27PM 40.7150 -79.5394 307° West 200 230 20,000  Level Cleveland Center
03:28PM 40.7467 -79.6019 304° West 200 230 20,000  Level Cleveland Center
03:29PM 40.7806 -79.6619 307° West 200 230 20,000  Level Cleveland Center
03:30PM 40.8144 -79.7217 307° West 200 230 20,000  Level Cleveland Center
03:31PM 40.8461 -79.7817 305° West 200 230 20,000  Level Cleveland Center
03:32PM 40.8800 -79.8417 307° West 200 230 20,000  Level Cleveland Center
03:33PM 40.9136 -79.9017 307° West 200 230 20,000  Level Cleveland Center
03:34PM 40.9494 -79.9644 307° West 200 230 20,000 -120 Level Cleveland Center
03:35PM 40.9808 -80.0247 305° West 200 230 19,800 -720 Descending Cleveland Center
03:36PM 41.0167 -80.0933 305° West 212 244 18,600 -1,200 Descending Cleveland Center
03:37PM 41.0567 -80.1644 307° West 226 260 17,400 -1,200 Descending Cleveland Center
03:38PM 41.0944 -80.2361 305° West 231 266 16,200 -1,200 Descending Cleveland Center
03:39PM 41.1319 -80.3047 306° West 231 266 15,000 -1,140 Descending Cleveland Center
03:40PM 41.1761 -80.3872 305° West 248 285 14,000 -900 Descending Cleveland Center
03:41PM 41.2053 -80.4397 306° West 234 269 13,300 -900 Descending Cleveland Center
03:42PM 41.2367 -80.4975 306° West 205 236 12,300 -1,020 Descending Cleveland Center
03:43PM 41.2678 -80.5583 304° West 195 224 11,300 -660 Descending Cleveland Center
03:44PM 41.2992 -80.6164 306° West 195 224 11,000 -180 Descending Cleveland Center
03:45PM 41.3303 -80.6744 306° West 195 224 11,000 -300 Level Cleveland Center
03:46PM 41.3533 -80.7325 298° West 185 213 10,400 -960 Descending Cleveland Center
03:47PM 41.3761 -80.7961 296° West 185 213 9,100 -720 Descending Cleveland Center
03:48PM 41.4011 -80.8600 298° West 179 206 9,000 -60 Descending Cleveland Center
03:49PM 41.4236 -80.9208 296° West 179 206 9,000  Level Cleveland Center
03:49PM 41.4361 -80.9486 301° West 189 217 9,000  Level Cleveland Center
03:50PM 41.4464 -80.9847 291° West 179 206 9,000  Level Cleveland Center
03:51PM 41.4711 -81.0486 297° West 190 219 9,000  Level Cleveland Center
03:52PM 41.4919 -81.1069 296° West 179 206 9,000  Level Cleveland Center
03:53PM 41.5103 -81.1736 290° West 196 226 9,000 -300 Level Cleveland Center
03:54PM 41.5414 -81.2211 311° West 174 200 8,500 -900 Descending Cleveland Center
03:55PM 41.5847 -81.2744 317° Northwest 197 227 7,200 -780 Descending Cleveland Center
03:56PM 41.6200 -81.3219 315° West 201 231 7,000 -120 Descending Cleveland Center
03:57PM 41.6444 -81.3833 298° West 196 226 7,000 -660 Level Cleveland Center
03:58PM 41.6419 -81.4444 267° West 170 196 5,700 -1,020 Descending Cleveland Center
03:59PM 41.6247 -81.5081 250° West 165 190 5,000 -360 Descending Cleveland Center
04:00PM 41.5908 -81.5742 236° Southwest 191 220 5,000  Level Cleveland Center
04:01PM 41.5592 -81.6211 228° Southwest 164 189 5,000 -300 Level Cleveland Center
04:02PM 41.5317 -81.6650 230° Southwest 142 163 4,500 -660 Descending Cleveland Center
04:03PM 41.5083 -81.7033 231° Southwest 149 171 3,700 -900 Descending Cleveland Center
04:04PM 41.4767 -81.7528 229° Southwest 156 180 2,800 -900 Descending Cleveland Center
04:05PM 41.4533 -81.7883 229° Southwest 136 157 2,000 -720 Descending Cleveland Center
04:06PM 41.4300 -81.8239 229° Southwest 120 138 1,400 -600 Descending Cleveland Center